createdAt,value
2022-12-09T00:00:59.674Z,7.57
2022-12-09T00:03:38.084Z,7.54
2022-12-09T00:06:11.868Z,7.44
2022-12-09T00:08:42.371Z,7.37
2022-12-09T00:14:54.273Z,7.29
2022-12-09T00:17:38.775Z,7.28
2022-12-09T00:20:09.253Z,7.26
2022-12-09T00:22:42.668Z,7.21
2022-12-09T00:25:14.352Z,7.20
2022-12-09T08:07:34.024Z,3.61
2022-12-09T08:10:47.546Z,3.64
2022-12-09T08:13:18.823Z,3.65
2022-12-09T08:15:48.163Z,3.64
2022-12-09T08:50:08.387Z,3.83
2022-12-09T08:52:54.831Z,3.84
2022-12-09T08:55:25.923Z,3.86
2022-12-09T08:57:58.738Z,3.88
2022-12-09T09:06:26.031Z,4.11
2022-12-09T09:08:59.300Z,4.18
2022-12-09T09:11:28.742Z,4.24
2022-12-09T09:13:58.854Z,4.31
2022-12-09T09:16:37.556Z,4.41
2022-12-09T09:19:07.948Z,4.46
2022-12-09T09:21:47.950Z,4.52
2022-12-09T09:24:22.239Z,4.57
2022-12-09T09:26:52.459Z,4.61
2022-12-09T09:29:26.332Z,4.63
2022-12-09T09:31:56.479Z,4.69
2022-12-09T09:34:32.037Z,4.71
2022-12-09T09:37:07.578Z,4.75
2022-12-09T09:39:43.378Z,4.80
2022-12-09T09:42:19.034Z,4.81
2022-12-09T09:44:52.177Z,4.81
2022-12-09T09:47:39.103Z,4.87
2022-12-09T09:50:28.418Z,4.97
2022-12-09T09:53:01.853Z,5.07
2022-12-09T09:55:44.657Z,5.16
2022-12-09T09:58:20.528Z,5.24
2022-12-09T10:01:23.261Z,5.35
2022-12-09T10:04:00.155Z,5.47
2022-12-09T10:06:42.533Z,5.55
2022-12-09T10:09:49.253Z,5.65
2022-12-09T10:13:18.186Z,5.71
2022-12-09T10:16:13.414Z,5.75
2022-12-09T10:19:08.962Z,5.75
2022-12-09T10:21:52.807Z,5.75
2022-12-09T10:24:34.342Z,5.76
2022-12-09T10:27:35.866Z,5.79
2022-12-09T10:47:03.406Z,6.09
2022-12-09T11:06:51.670Z,6.53
2022-12-09T11:09:50.305Z,6.63
2022-12-09T11:12:56.000Z,6.77
2022-12-09T11:15:36.299Z,6.91
2022-12-09T11:18:32.071Z,7.08
2022-12-09T11:21:37.897Z,7.19
2022-12-09T12:00:58.569Z,9.77
2022-12-09T12:18:10.126Z,9.87
2022-12-09T13:04:32.623Z,10.12
2022-12-09T13:16:51.266Z,10.05
2022-12-09T13:40:03.246Z,10.44
2022-12-09T13:42:59.487Z,10.55
2022-12-09T13:45:50.027Z,10.76
2022-12-09T13:48:57.476Z,10.95
2022-12-09T13:51:27.771Z,11.11
2022-12-09T13:54:12.021Z,11.23
2022-12-09T13:56:46.909Z,11.26
2022-12-09T13:59:48.661Z,11.26
2022-12-09T14:03:12.980Z,11.28
2022-12-09T14:05:41.644Z,11.27
2022-12-09T14:08:22.250Z,11.27
2022-12-09T15:48:27.670Z,12.71
2022-12-09T15:57:26.710Z,11.47
2022-12-09T16:00:32.715Z,11.16
2022-12-09T22:40:09.457Z,4.67
2022-12-09T22:42:53.310Z,4.74
2022-12-09T22:45:22.877Z,4.80
2022-12-09T22:47:52.632Z,4.82
2022-12-09T22:50:21.274Z,4.82
2022-12-09T22:52:59.827Z,4.84
2022-12-09T22:55:30.867Z,4.84
2022-12-09T22:58:21.215Z,4.87
2022-12-09T23:04:29.085Z,4.89
2022-12-09T23:07:12.969Z,4.94
2022-12-09T23:09:41.860Z,4.93
2022-12-09T23:18:39.113Z,4.93
2022-12-09T23:21:10.437Z,4.98
2022-12-09T23:23:39.168Z,5.04
2022-12-09T23:26:09.909Z,5.06
2022-12-09T23:28:39.301Z,5.09
2022-12-09T23:31:10.703Z,5.12
2022-12-09T23:33:43.639Z,5.13
2022-12-09T23:36:16.873Z,5.11
2022-12-09T23:38:49.198Z,5.08
2022-12-09T23:41:33.453Z,4.98
2022-12-09T23:44:02.134Z,4.94
2022-12-09T23:46:35.590Z,4.82
2022-12-09T23:49:22.769Z,4.80
2022-12-09T23:52:21.649Z,4.70
2022-12-09T23:55:16.140Z,4.59
2022-12-09T23:57:48.811Z,4.53
